sensor_id;sensor_type;location;lat;lon;timestamp;temperature;humidity
45008;DHT22;30743;52.008;5.644;2022-08-16T00:02:08;27.10;86.70
45008;DHT22;30743;52.008;5.644;2022-08-16T00:04:34;27.10;86.80
45008;DHT22;30743;52.008;5.644;2022-08-16T00:07:00;27.10;87.00
45008;DHT22;30743;52.008;5.644;2022-08-16T00:09:26;27.10;87.20
45008;DHT22;30743;52.008;5.644;2022-08-16T00:11:51;27.10;87.00
45008;DHT22;30743;52.008;5.644;2022-08-16T00:14:23;27.00;86.60
45008;DHT22;30743;52.008;5.644;2022-08-16T00:16:49;26.90;86.10
45008;DHT22;30743;52.008;5.644;2022-08-16T00:19:27;27.00;86.50
45008;DHT22;30743;52.008;5.644;2022-08-16T00:21:53;26.80;86.30
45008;DHT22;30743;52.008;5.644;2022-08-16T00:24:20;26.70;86.80
45008;DHT22;30743;52.008;5.644;2022-08-16T00:26:45;26.60;87.40
45008;DHT22;30743;52.008;5.644;2022-08-16T00:29:13;26.50;88.10
45008;DHT22;30743;52.008;5.644;2022-08-16T00:31:39;26.40;88.50
45008;DHT22;30743;52.008;5.644;2022-08-16T00:34:05;26.40;88.50
45008;DHT22;30743;52.008;5.644;2022-08-16T00:36:31;26.20;89.00
45008;DHT22;30743;52.008;5.644;2022-08-16T00:38:57;26.10;89.40
45008;DHT22;30743;52.008;5.644;2022-08-16T00:41:22;26.10;89.60
45008;DHT22;30743;52.008;5.644;2022-08-16T00:43:49;26.10;90.00
45008;DHT22;30743;52.008;5.644;2022-08-16T00:46:33;25.90;90.20
45008;DHT22;30743;52.008;5.644;2022-08-16T00:49:05;25.60;90.30
45008;DHT22;30743;52.008;5.644;2022-08-16T00:51:32;25.60;90.50
45008;DHT22;30743;52.008;5.644;2022-08-16T00:53:57;25.70;90.50
45008;DHT22;30743;52.008;5.644;2022-08-16T00:56:26;25.70;90.60
45008;DHT22;30743;52.008;5.644;2022-08-16T00:58:52;25.70;90.70
45008;DHT22;30743;52.008;5.644;2022-08-16T01:01:19;25.70;90.70
45008;DHT22;30743;52.008;5.644;2022-08-16T01:03:48;25.60;90.80
45008;DHT22;30743;52.008;5.644;2022-08-16T01:06:14;25.70;90.80
45008;DHT22;30743;52.008;5.644;2022-08-16T01:08:40;25.60;90.70
45008;DHT22;30743;52.008;5.644;2022-08-16T01:11:07;25.70;90.80
45008;DHT22;30743;52.008;5.644;2022-08-16T01:13:34;25.50;91.00
45008;DHT22;30743;52.008;5.644;2022-08-16T01:16:11;25.40;91.00
45008;DHT22;30743;52.008;5.644;2022-08-16T01:18:45;25.40;91.40
45008;DHT22;30743;52.008;5.644;2022-08-16T01:26:16;25.30;91.70
45008;DHT22;30743;52.008;5.644;2022-08-16T01:28:43;25.20;91.80
45008;DHT22;30743;52.008;5.644;2022-08-16T01:31:09;25.10;92.00
45008;DHT22;30743;52.008;5.644;2022-08-16T01:33:35;25.20;92.30
45008;DHT22;30743;52.008;5.644;2022-08-16T01:36:07;25.10;92.00
45008;DHT22;30743;52.008;5.644;2022-08-16T01:38:42;25.20;92.10
45008;DHT22;30743;52.008;5.644;2022-08-16T01:41:13;25.20;92.10
45008;DHT22;30743;52.008;5.644;2022-08-16T01:43:41;25.30;92.10
45008;DHT22;30743;52.008;5.644;2022-08-16T01:46:18;25.30;92.20
45008;DHT22;30743;52.008;5.644;2022-08-16T01:48:44;25.30;92.30
45008;DHT22;30743;52.008;5.644;2022-08-16T01:51:12;25.30;92.30
45008;DHT22;30743;52.008;5.644;2022-08-16T01:53:38;25.30;92.30
45008;DHT22;30743;52.008;5.644;2022-08-16T01:56:05;25.30;92.30
45008;DHT22;30743;52.008;5.644;2022-08-16T01:58:30;25.40;92.20
45008;DHT22;30743;52.008;5.644;2022-08-16T02:00:56;25.30;92.30
45008;DHT22;30743;52.008;5.644;2022-08-16T02:03:22;25.40;92.40
45008;DHT22;30743;52.008;5.644;2022-08-16T02:05:48;25.40;92.40
45008;DHT22;30743;52.008;5.644;2022-08-16T02:08:14;25.30;92.30
45008;DHT22;30743;52.008;5.644;2022-08-16T02:10:39;25.20;92.50
45008;DHT22;30743;52.008;5.644;2022-08-16T02:13:06;25.20;92.50
45008;DHT22;30743;52.008;5.644;2022-08-16T02:15:34;25.20;92.60
45008;DHT22;30743;52.008;5.644;2022-08-16T02:18:02;25.20;92.70
45008;DHT22;30743;52.008;5.644;2022-08-16T02:20:30;25.10;92.80
45008;DHT22;30743;52.008;5.644;2022-08-16T02:22:58;25.10;92.90
45008;DHT22;30743;52.008;5.644;2022-08-16T02:25:24;25.00;93.00
45008;DHT22;30743;52.008;5.644;2022-08-16T02:27:52;25.10;93.00
45008;DHT22;30743;52.008;5.644;2022-08-16T02:30:22;24.90;93.30
45008;DHT22;30743;52.008;5.644;2022-08-16T02:32:48;24.90;93.40
45008;DHT22;30743;52.008;5.644;2022-08-16T02:35:14;24.90;93.80
45008;DHT22;30743;52.008;5.644;2022-08-16T02:37:40;24.80;93.90
45008;DHT22;30743;52.008;5.644;2022-08-16T02:40:07;24.80;94.00
45008;DHT22;30743;52.008;5.644;2022-08-16T02:42:34;24.80;94.00
45008;DHT22;30743;52.008;5.644;2022-08-16T02:44:59;24.80;94.20
45008;DHT22;30743;52.008;5.644;2022-08-16T02:47:25;24.90;94.20
45008;DHT22;30743;52.008;5.644;2022-08-16T02:49:50;24.90;93.90
45008;DHT22;30743;52.008;5.644;2022-08-16T02:52:16;24.80;94.00
45008;DHT22;30743;52.008;5.644;2022-08-16T02:54:42;24.90;94.00
45008;DHT22;30743;52.008;5.644;2022-08-16T02:57:07;24.90;94.00
45008;DHT22;30743;52.008;5.644;2022-08-16T02:59:33;24.90;94.00
45008;DHT22;30743;52.008;5.644;2022-08-16T03:01:58;24.90;94.10
45008;DHT22;30743;52.008;5.644;2022-08-16T03:04:24;24.90;94.10
45008;DHT22;30743;52.008;5.644;2022-08-16T03:06:51;24.80;94.00
45008;DHT22;30743;52.008;5.644;2022-08-16T03:09:17;24.80;93.70
45008;DHT22;30743;52.008;5.644;2022-08-16T03:11:43;24.80;93.40
45008;DHT22;30743;52.008;5.644;2022-08-16T03:14:09;24.80;93.40
45008;DHT22;30743;52.008;5.644;2022-08-16T03:16:35;24.70;93.10
45008;DHT22;30743;52.008;5.644;2022-08-16T03:19:01;24.70;92.90
45008;DHT22;30743;52.008;5.644;2022-08-16T03:21:26;24.70;93.00
45008;DHT22;30743;52.008;5.644;2022-08-16T03:23:53;24.60;93.00
45008;DHT22;30743;52.008;5.644;2022-08-16T03:26:19;24.60;92.90
45008;DHT22;30743;52.008;5.644;2022-08-16T03:28:44;24.60;92.90
45008;DHT22;30743;52.008;5.644;2022-08-16T03:31:10;24.50;93.00
45008;DHT22;30743;52.008;5.644;2022-08-16T03:33:36;24.50;93.50
45008;DHT22;30743;52.008;5.644;2022-08-16T03:36:02;24.40;93.50
45008;DHT22;30743;52.008;5.644;2022-08-16T03:38:29;24.40;93.40
45008;DHT22;30743;52.008;5.644;2022-08-16T03:40:55;24.40;93.50
45008;DHT22;30743;52.008;5.644;2022-08-16T03:43:21;24.40;93.70
45008;DHT22;30743;52.008;5.644;2022-08-16T03:45:50;24.30;94.10
45008;DHT22;30743;52.008;5.644;2022-08-16T03:48:16;24.30;94.10
45008;DHT22;30743;52.008;5.644;2022-08-16T03:50:41;24.30;94.70
45008;DHT22;30743;52.008;5.644;2022-08-16T03:53:07;24.30;94.80
45008;DHT22;30743;52.008;5.644;2022-08-16T03:55:32;24.30;94.40
45008;DHT22;30743;52.008;5.644;2022-08-16T03:57:58;24.20;94.40
45008;DHT22;30743;52.008;5.644;2022-08-16T04:00:27;24.30;94.30
45008;DHT22;30743;52.008;5.644;2022-08-16T04:02:55;24.20;94.30
45008;DHT22;30743;52.008;5.644;2022-08-16T04:05:21;24.20;94.40
45008;DHT22;30743;52.008;5.644;2022-08-16T04:07:47;24.20;94.30
45008;DHT22;30743;52.008;5.644;2022-08-16T04:10:13;24.20;94.30
45008;DHT22;30743;52.008;5.644;2022-08-16T04:12:39;24.20;94.70
45008;DHT22;30743;52.008;5.644;2022-08-16T04:15:08;24.10;94.90
45008;DHT22;30743;52.008;5.644;2022-08-16T04:17:34;24.10;94.50
45008;DHT22;30743;52.008;5.644;2022-08-16T04:20:00;24.10;94.40
45008;DHT22;30743;52.008;5.644;2022-08-16T04:22:26;24.00;94.40
45008;DHT22;30743;52.008;5.644;2022-08-16T04:24:52;24.00;95.10
45008;DHT22;30743;52.008;5.644;2022-08-16T04:27:17;23.90;95.70
45008;DHT22;30743;52.008;5.644;2022-08-16T04:29:43;23.90;96.40
45008;DHT22;30743;52.008;5.644;2022-08-16T04:32:09;23.80;96.90
45008;DHT22;30743;52.008;5.644;2022-08-16T04:34:36;23.80;97.00
45008;DHT22;30743;52.008;5.644;2022-08-16T04:37:04;23.70;97.30
45008;DHT22;30743;52.008;5.644;2022-08-16T04:39:32;23.60;98.10
45008;DHT22;30743;52.008;5.644;2022-08-16T04:41:59;23.60;98.60
45008;DHT22;30743;52.008;5.644;2022-08-16T04:44:25;23.70;98.60
45008;DHT22;30743;52.008;5.644;2022-08-16T04:46:51;23.70;98.60
45008;DHT22;30743;52.008;5.644;2022-08-16T04:49:17;23.80;98.70
45008;DHT22;30743;52.008;5.644;2022-08-16T04:51:43;23.80;99.10
45008;DHT22;30743;52.008;5.644;2022-08-16T04:54:09;23.80;99.50
45008;DHT22;30743;52.008;5.644;2022-08-16T04:56:36;23.70;99.40
45008;DHT22;30743;52.008;5.644;2022-08-16T04:59:02;23.80;99.60
45008;DHT22;30743;52.008;5.644;2022-08-16T05:01:28;23.80;99.70
45008;DHT22;30743;52.008;5.644;2022-08-16T05:03:54;23.90;99.80
45008;DHT22;30743;52.008;5.644;2022-08-16T05:06:19;24.00;99.80
45008;DHT22;30743;52.008;5.644;2022-08-16T05:08:45;24.10;99.70
45008;DHT22;30743;52.008;5.644;2022-08-16T05:11:12;24.10;99.70
45008;DHT22;30743;52.008;5.644;2022-08-16T05:13:41;24.10;99.70
45008;DHT22;30743;52.008;5.644;2022-08-16T05:16:08;24.20;99.60
45008;DHT22;30743;52.008;5.644;2022-08-16T05:18:35;24.10;99.80
45008;DHT22;30743;52.008;5.644;2022-08-16T05:21:01;24.20;99.90
45008;DHT22;30743;52.008;5.644;2022-08-16T05:23:26;24.20;99.90
45008;DHT22;30743;52.008;5.644;2022-08-16T05:25:52;24.30;99.80
45008;DHT22;30743;52.008;5.644;2022-08-16T05:28:17;24.40;99.90
45008;DHT22;30743;52.008;5.644;2022-08-16T05:30:43;24.50;99.90
45008;DHT22;30743;52.008;5.644;2022-08-16T05:33:10;24.60;99.80
45008;DHT22;30743;52.008;5.644;2022-08-16T05:35:36;24.70;99.70
45008;DHT22;30743;52.008;5.644;2022-08-16T05:38:01;24.80;99.70
45008;DHT22;30743;52.008;5.644;2022-08-16T05:40:27;24.90;99.40
45008;DHT22;30743;52.008;5.644;2022-08-16T05:42:53;24.90;99.30
45008;DHT22;30743;52.008;5.644;2022-08-16T05:45:19;25.00;99.20
45008;DHT22;30743;52.008;5.644;2022-08-16T05:47:44;25.10;99.10
45008;DHT22;30743;52.008;5.644;2022-08-16T05:50:10;25.10;99.00
45008;DHT22;30743;52.008;5.644;2022-08-16T05:52:36;25.10;99.00
45008;DHT22;30743;52.008;5.644;2022-08-16T05:55:02;25.10;99.10
45008;DHT22;30743;52.008;5.644;2022-08-16T05:57:27;25.10;99.00
45008;DHT22;30743;52.008;5.644;2022-08-16T05:59:53;25.10;99.20
45008;DHT22;30743;52.008;5.644;2022-08-16T06:02:18;25.10;99.30
45008;DHT22;30743;52.008;5.644;2022-08-16T06:04:46;25.10;99.40
45008;DHT22;30743;52.008;5.644;2022-08-16T06:07:12;25.20;99.40
45008;DHT22;30743;52.008;5.644;2022-08-16T06:09:38;25.20;99.30
45008;DHT22;30743;52.008;5.644;2022-08-16T06:12:04;25.40;99.50
45008;DHT22;30743;52.008;5.644;2022-08-16T06:14:30;25.40;99.40
45008;DHT22;30743;52.008;5.644;2022-08-16T06:16:55;25.30;99.30
45008;DHT22;30743;52.008;5.644;2022-08-16T06:19:22;25.40;99.50
45008;DHT22;30743;52.008;5.644;2022-08-16T06:21:47;25.50;99.50
45008;DHT22;30743;52.008;5.644;2022-08-16T06:24:13;25.60;99.60
45008;DHT22;30743;52.008;5.644;2022-08-16T06:26:39;25.60;99.50
45008;DHT22;30743;52.008;5.644;2022-08-16T06:29:04;25.70;99.50
45008;DHT22;30743;52.008;5.644;2022-08-16T06:31:30;25.80;99.50
45008;DHT22;30743;52.008;5.644;2022-08-16T06:33:56;25.90;99.30
45008;DHT22;30743;52.008;5.644;2022-08-16T06:36:22;25.90;99.10
45008;DHT22;30743;52.008;5.644;2022-08-16T06:38:49;26.00;98.90
45008;DHT22;30743;52.008;5.644;2022-08-16T06:41:14;26.10;99.10
45008;DHT22;30743;52.008;5.644;2022-08-16T06:43:40;26.20;98.60
45008;DHT22;30743;52.008;5.644;2022-08-16T06:46:08;26.20;98.70
45008;DHT22;30743;52.008;5.644;2022-08-16T06:48:45;26.30;98.70
45008;DHT22;30743;52.008;5.644;2022-08-16T06:51:10;26.40;98.30
45008;DHT22;30743;52.008;5.644;2022-08-16T06:53:36;26.50;98.10
45008;DHT22;30743;52.008;5.644;2022-08-16T06:56:03;26.50;98.10
45008;DHT22;30743;52.008;5.644;2022-08-16T06:58:30;26.60;97.90
45008;DHT22;30743;52.008;5.644;2022-08-16T07:00:55;26.70;97.50
45008;DHT22;30743;52.008;5.644;2022-08-16T07:03:21;26.90;97.60
45008;DHT22;30743;52.008;5.644;2022-08-16T07:05:46;26.90;97.00
45008;DHT22;30743;52.008;5.644;2022-08-16T07:08:12;27.00;96.50
45008;DHT22;30743;52.008;5.644;2022-08-16T07:10:38;27.10;96.30
45008;DHT22;30743;52.008;5.644;2022-08-16T07:13:03;27.20;96.20
45008;DHT22;30743;52.008;5.644;2022-08-16T07:15:29;27.30;95.80
45008;DHT22;30743;52.008;5.644;2022-08-16T07:17:56;27.30;95.60
45008;DHT22;30743;52.008;5.644;2022-08-16T07:20:21;27.30;95.50
45008;DHT22;30743;52.008;5.644;2022-08-16T07:22:47;27.40;95.30
45008;DHT22;30743;52.008;5.644;2022-08-16T07:25:14;27.40;95.00
45008;DHT22;30743;52.008;5.644;2022-08-16T07:27:40;27.50;94.30
45008;DHT22;30743;52.008;5.644;2022-08-16T07:30:09;27.60;93.70
45008;DHT22;30743;52.008;5.644;2022-08-16T07:32:35;27.70;93.50
45008;DHT22;30743;52.008;5.644;2022-08-16T07:35:01;27.90;93.00
45008;DHT22;30743;52.008;5.644;2022-08-16T07:37:26;27.90;92.90
45008;DHT22;30743;52.008;5.644;2022-08-16T07:39:52;28.10;93.00
45008;DHT22;30743;52.008;5.644;2022-08-16T07:42:18;28.20;93.20
45008;DHT22;30743;52.008;5.644;2022-08-16T07:44:43;28.20;91.70
45008;DHT22;30743;52.008;5.644;2022-08-16T07:47:09;28.40;91.50
45008;DHT22;30743;52.008;5.644;2022-08-16T07:49:34;28.50;91.10
45008;DHT22;30743;52.008;5.644;2022-08-16T07:52:00;28.60;90.70
45008;DHT22;30743;52.008;5.644;2022-08-16T07:54:25;28.70;90.30
45008;DHT22;30743;52.008;5.644;2022-08-16T07:56:51;28.80;90.00
45008;DHT22;30743;52.008;5.644;2022-08-16T07:59:16;28.90;89.60
45008;DHT22;30743;52.008;5.644;2022-08-16T08:01:42;29.00;89.10
45008;DHT22;30743;52.008;5.644;2022-08-16T08:04:08;29.20;89.60
45008;DHT22;30743;52.008;5.644;2022-08-16T08:06:38;29.40;89.70
45008;DHT22;30743;52.008;5.644;2022-08-16T08:09:03;29.40;88.10
45008;DHT22;30743;52.008;5.644;2022-08-16T08:11:30;29.60;89.60
45008;DHT22;30743;52.008;5.644;2022-08-16T08:13:57;29.80;87.60
45008;DHT22;30743;52.008;5.644;2022-08-16T08:16:26;30.00;87.70
45008;DHT22;30743;52.008;5.644;2022-08-16T08:18:52;30.20;87.00
45008;DHT22;30743;52.008;5.644;2022-08-16T08:21:20;30.40;86.40
45008;DHT22;30743;52.008;5.644;2022-08-16T08:23:46;30.40;86.60
45008;DHT22;30743;52.008;5.644;2022-08-16T08:26:13;30.60;86.90
45008;DHT22;30743;52.008;5.644;2022-08-16T08:28:39;30.80;85.50
45008;DHT22;30743;52.008;5.644;2022-08-16T08:31:05;31.00;85.50
45008;DHT22;30743;52.008;5.644;2022-08-16T08:33:30;31.00;85.30
45008;DHT22;30743;52.008;5.644;2022-08-16T08:35:58;31.10;84.30
45008;DHT22;30743;52.008;5.644;2022-08-16T08:38:24;31.20;84.50
45008;DHT22;30743;52.008;5.644;2022-08-16T08:40:52;31.40;84.60
45008;DHT22;30743;52.008;5.644;2022-08-16T08:43:18;31.60;83.90
45008;DHT22;30743;52.008;5.644;2022-08-16T08:45:43;31.90;83.50
45008;DHT22;30743;52.008;5.644;2022-08-16T08:48:09;31.90;83.00
45008;DHT22;30743;52.008;5.644;2022-08-16T08:50:34;32.20;83.50
45008;DHT22;30743;52.008;5.644;2022-08-16T08:53:01;32.30;82.10
45008;DHT22;30743;52.008;5.644;2022-08-16T08:55:27;32.40;82.00
45008;DHT22;30743;52.008;5.644;2022-08-16T08:57:53;32.60;80.80
45008;DHT22;30743;52.008;5.644;2022-08-16T09:00:22;32.70;81.00
45008;DHT22;30743;52.008;5.644;2022-08-16T09:02:48;32.90;80.40
45008;DHT22;30743;52.008;5.644;2022-08-16T09:05:16;33.20;79.00
45008;DHT22;30743;52.008;5.644;2022-08-16T09:07:43;33.40;79.40
45008;DHT22;30743;52.008;5.644;2022-08-16T09:10:09;33.40;78.00
45008;DHT22;30743;52.008;5.644;2022-08-16T09:12:35;33.60;77.20
45008;DHT22;30743;52.008;5.644;2022-08-16T09:15:01;33.80;77.00
45008;DHT22;30743;52.008;5.644;2022-08-16T09:17:27;33.90;76.30
45008;DHT22;30743;52.008;5.644;2022-08-16T09:19:53;34.10;77.40
45008;DHT22;30743;52.008;5.644;2022-08-16T09:22:21;34.30;76.60
45008;DHT22;30743;52.008;5.644;2022-08-16T09:24:48;34.50;76.80
45008;DHT22;30743;52.008;5.644;2022-08-16T09:27:14;34.70;76.10
45008;DHT22;30743;52.008;5.644;2022-08-16T09:29:40;34.80;74.30
45008;DHT22;30743;52.008;5.644;2022-08-16T09:32:06;35.00;74.50
45008;DHT22;30743;52.008;5.644;2022-08-16T09:34:31;35.20;73.70
45008;DHT22;30743;52.008;5.644;2022-08-16T09:36:57;35.30;73.20
45008;DHT22;30743;52.008;5.644;2022-08-16T09:39:24;35.60;74.80
45008;DHT22;30743;52.008;5.644;2022-08-16T09:41:50;35.70;73.20
45008;DHT22;30743;52.008;5.644;2022-08-16T09:44:17;35.70;72.00
45008;DHT22;30743;52.008;5.644;2022-08-16T09:46:45;35.90;72.60
45008;DHT22;30743;52.008;5.644;2022-08-16T09:49:10;36.10;71.10
45008;DHT22;30743;52.008;5.644;2022-08-16T09:51:36;36.10;71.00
45008;DHT22;30743;52.008;5.644;2022-08-16T09:54:02;36.40;71.60
45008;DHT22;30743;52.008;5.644;2022-08-16T09:56:31;36.30;70.00
45008;DHT22;30743;52.008;5.644;2022-08-16T09:58:58;36.50;70.20
45008;DHT22;30743;52.008;5.644;2022-08-16T10:01:23;36.70;70.00
45008;DHT22;30743;52.008;5.644;2022-08-16T10:03:51;36.90;69.30
45008;DHT22;30743;52.008;5.644;2022-08-16T10:06:18;37.00;68.40
45008;DHT22;30743;52.008;5.644;2022-08-16T10:08:45;37.20;68.10
45008;DHT22;30743;52.008;5.644;2022-08-16T10:11:10;37.40;67.80
45008;DHT22;30743;52.008;5.644;2022-08-16T10:13:54;37.50;67.10
45008;DHT22;30743;52.008;5.644;2022-08-16T10:16:20;37.60;67.30
45008;DHT22;30743;52.008;5.644;2022-08-16T10:18:46;37.90;66.30
45008;DHT22;30743;52.008;5.644;2022-08-16T10:21:12;38.00;65.10
45008;DHT22;30743;52.008;5.644;2022-08-16T10:23:42;38.10;63.90
45008;DHT22;30743;52.008;5.644;2022-08-16T10:26:08;38.00;64.70
45008;DHT22;30743;52.008;5.644;2022-08-16T10:28:34;38.20;64.50
45008;DHT22;30743;52.008;5.644;2022-08-16T10:31:01;38.20;64.50
45008;DHT22;30743;52.008;5.644;2022-08-16T10:33:28;38.50;64.90
45008;DHT22;30743;52.008;5.644;2022-08-16T10:35:54;38.40;64.90
45008;DHT22;30743;52.008;5.644;2022-08-16T10:38:20;38.50;63.90
45008;DHT22;30743;52.008;5.644;2022-08-16T10:40:45;38.70;64.60
45008;DHT22;30743;52.008;5.644;2022-08-16T10:43:11;38.80;63.80
45008;DHT22;30743;52.008;5.644;2022-08-16T10:45:37;39.00;62.80
45008;DHT22;30743;52.008;5.644;2022-08-16T10:48:08;39.10;63.30
45008;DHT22;30743;52.008;5.644;2022-08-16T10:50:35;39.10;60.70
45008;DHT22;30743;52.008;5.644;2022-08-16T10:53:02;39.20;60.80
45008;DHT22;30743;52.008;5.644;2022-08-16T10:55:32;39.30;62.30
45008;DHT22;30743;52.008;5.644;2022-08-16T10:57:58;39.40;62.10
45008;DHT22;30743;52.008;5.644;2022-08-16T11:00:26;39.60;60.80
45008;DHT22;30743;52.008;5.644;2022-08-16T11:02:52;39.80;61.30
45008;DHT22;30743;52.008;5.644;2022-08-16T11:05:18;40.00;59.90
45008;DHT22;30743;52.008;5.644;2022-08-16T11:07:46;40.00;59.70
45008;DHT22;30743;52.008;5.644;2022-08-16T11:10:15;40.30;60.00
45008;DHT22;30743;52.008;5.644;2022-08-16T11:12:40;40.40;59.30
45008;DHT22;30743;52.008;5.644;2022-08-16T11:15:06;40.60;58.90
45008;DHT22;30743;52.008;5.644;2022-08-16T11:17:32;40.80;58.70
45008;DHT22;30743;52.008;5.644;2022-08-16T11:19:57;40.90;57.90
45008;DHT22;30743;52.008;5.644;2022-08-16T11:22:23;41.10;58.30
45008;DHT22;30743;52.008;5.644;2022-08-16T11:24:48;41.10;58.00
45008;DHT22;30743;52.008;5.644;2022-08-16T11:27:17;40.90;58.50
45008;DHT22;30743;52.008;5.644;2022-08-16T11:29:43;41.10;58.50
45008;DHT22;30743;52.008;5.644;2022-08-16T11:32:08;41.10;58.30
45008;DHT22;30743;52.008;5.644;2022-08-16T11:34:34;41.10;58.20
45008;DHT22;30743;52.008;5.644;2022-08-16T11:37:01;41.10;58.50
45008;DHT22;30743;52.008;5.644;2022-08-16T11:39:28;41.10;58.60
45008;DHT22;30743;52.008;5.644;2022-08-16T11:41:54;41.10;58.60
45008;DHT22;30743;52.008;5.644;2022-08-16T11:44:19;41.20;58.10
45008;DHT22;30743;52.008;5.644;2022-08-16T11:46:45;41.10;58.80
45008;DHT22;30743;52.008;5.644;2022-08-16T11:49:11;41.10;58.70
45008;DHT22;30743;52.008;5.644;2022-08-16T11:51:37;41.10;57.20
45008;DHT22;30743;52.008;5.644;2022-08-16T11:54:04;41.20;57.20
45008;DHT22;30743;52.008;5.644;2022-08-16T11:56:29;41.20;56.60
45008;DHT22;30743;52.008;5.644;2022-08-16T11:58:55;41.20;56.00
45008;DHT22;30743;52.008;5.644;2022-08-16T12:01:20;41.30;56.20
45008;DHT22;30743;52.008;5.644;2022-08-16T12:03:46;41.30;56.80
45008;DHT22;30743;52.008;5.644;2022-08-16T12:06:15;41.40;56.20
45008;DHT22;30743;52.008;5.644;2022-08-16T12:08:43;41.50;55.50
45008;DHT22;30743;52.008;5.644;2022-08-16T12:11:10;41.50;57.00
45008;DHT22;30743;52.008;5.644;2022-08-16T12:13:36;41.50;55.40
45008;DHT22;30743;52.008;5.644;2022-08-16T12:16:03;41.60;54.90
45008;DHT22;30743;52.008;5.644;2022-08-16T12:18:29;41.60;54.90
45008;DHT22;30743;52.008;5.644;2022-08-16T12:20:55;41.60;54.90
45008;DHT22;30743;52.008;5.644;2022-08-16T12:23:21;41.60;56.00
45008;DHT22;30743;52.008;5.644;2022-08-16T12:25:46;41.70;56.50
45008;DHT22;30743;52.008;5.644;2022-08-16T12:28:12;41.80;55.20
45008;DHT22;30743;52.008;5.644;2022-08-16T12:30:43;41.80;56.40
45008;DHT22;30743;52.008;5.644;2022-08-16T12:33:12;41.70;56.10
45008;DHT22;30743;52.008;5.644;2022-08-16T12:35:41;41.80;56.50
45008;DHT22;30743;52.008;5.644;2022-08-16T12:38:07;41.80;56.20
45008;DHT22;30743;52.008;5.644;2022-08-16T12:40:37;41.70;54.90
45008;DHT22;30743;52.008;5.644;2022-08-16T12:43:05;41.60;55.10
45008;DHT22;30743;52.008;5.644;2022-08-16T12:45:55;41.60;55.70
45008;DHT22;30743;52.008;5.644;2022-08-16T12:48:24;41.60;55.40
45008;DHT22;30743;52.008;5.644;2022-08-16T12:51:11;41.50;55.80
45008;DHT22;30743;52.008;5.644;2022-08-16T12:53:37;41.40;55.80
45008;DHT22;30743;52.008;5.644;2022-08-16T12:56:03;41.20;55.50
45008;DHT22;30743;52.008;5.644;2022-08-16T12:58:29;41.10;56.30
45008;DHT22;30743;52.008;5.644;2022-08-16T13:00:56;41.00;56.50
45008;DHT22;30743;52.008;5.644;2022-08-16T13:03:21;40.80;56.90
45008;DHT22;30743;52.008;5.644;2022-08-16T13:05:47;40.70;56.50
45008;DHT22;30743;52.008;5.644;2022-08-16T13:08:17;40.60;56.20
45008;DHT22;30743;52.008;5.644;2022-08-16T13:10:45;40.60;56.50
45008;DHT22;30743;52.008;5.644;2022-08-16T13:13:14;40.30;56.30
45008;DHT22;30743;52.008;5.644;2022-08-16T13:15:41;40.20;56.40
45008;DHT22;30743;52.008;5.644;2022-08-16T13:18:08;40.20;57.50
45008;DHT22;30743;52.008;5.644;2022-08-16T13:20:34;40.10;56.50
45008;DHT22;30743;52.008;5.644;2022-08-16T13:23:06;40.10;56.50
45008;DHT22;30743;52.008;5.644;2022-08-16T13:25:34;40.10;56.70
45008;DHT22;30743;52.008;5.644;2022-08-16T13:28:00;40.00;57.40
45008;DHT22;30743;52.008;5.644;2022-08-16T13:30:28;40.00;57.50
45008;DHT22;30743;52.008;5.644;2022-08-16T13:32:54;40.00;57.50
45008;DHT22;30743;52.008;5.644;2022-08-16T13:35:21;40.00;57.90
45008;DHT22;30743;52.008;5.644;2022-08-16T13:37:46;40.10;57.80
45008;DHT22;30743;52.008;5.644;2022-08-16T13:40:12;40.10;56.60
45008;DHT22;30743;52.008;5.644;2022-08-16T13:42:38;40.10;56.20
45008;DHT22;30743;52.008;5.644;2022-08-16T13:45:07;40.10;56.40
45008;DHT22;30743;52.008;5.644;2022-08-16T13:47:33;40.10;56.50
45008;DHT22;30743;52.008;5.644;2022-08-16T13:49:59;40.10;56.30
45008;DHT22;30743;52.008;5.644;2022-08-16T13:52:24;40.20;56.20
45008;DHT22;30743;52.008;5.644;2022-08-16T13:54:50;40.20;56.20
45008;DHT22;30743;52.008;5.644;2022-08-16T13:57:16;40.20;56.60
45008;DHT22;30743;52.008;5.644;2022-08-16T13:59:41;40.30;56.60
45008;DHT22;30743;52.008;5.644;2022-08-16T14:02:08;40.30;56.90
45008;DHT22;30743;52.008;5.644;2022-08-16T14:04:36;40.40;56.70
45008;DHT22;30743;52.008;5.644;2022-08-16T14:07:04;40.30;57.20
45008;DHT22;30743;52.008;5.644;2022-08-16T14:09:30;40.40;57.30
45008;DHT22;30743;52.008;5.644;2022-08-16T14:11:57;40.40;56.80
45008;DHT22;30743;52.008;5.644;2022-08-16T14:14:24;40.50;56.50
45008;DHT22;30743;52.008;5.644;2022-08-16T14:16:50;40.40;55.70
45008;DHT22;30743;52.008;5.644;2022-08-16T14:19:15;40.40;55.40
45008;DHT22;30743;52.008;5.644;2022-08-16T14:21:44;40.40;55.50
45008;DHT22;30743;52.008;5.644;2022-08-16T14:24:11;40.30;54.90
45008;DHT22;30743;52.008;5.644;2022-08-16T14:26:40;40.40;55.30
45008;DHT22;30743;52.008;5.644;2022-08-16T14:29:06;40.20;55.90
45008;DHT22;30743;52.008;5.644;2022-08-16T14:31:31;40.10;56.10
45008;DHT22;30743;52.008;5.644;2022-08-16T14:33:57;40.10;56.20
45008;DHT22;30743;52.008;5.644;2022-08-16T14:36:23;40.10;56.00
45008;DHT22;30743;52.008;5.644;2022-08-16T14:38:48;40.00;55.80
45008;DHT22;30743;52.008;5.644;2022-08-16T14:41:14;40.00;56.10
45008;DHT22;30743;52.008;5.644;2022-08-16T14:43:39;40.00;56.20
45008;DHT22;30743;52.008;5.644;2022-08-16T14:46:05;39.90;56.40
45008;DHT22;30743;52.008;5.644;2022-08-16T14:48:30;39.90;56.40
45008;DHT22;30743;52.008;5.644;2022-08-16T14:50:56;39.90;56.60
45008;DHT22;30743;52.008;5.644;2022-08-16T14:53:23;39.70;56.50
45008;DHT22;30743;52.008;5.644;2022-08-16T14:55:48;39.70;56.60
45008;DHT22;30743;52.008;5.644;2022-08-16T14:58:14;39.70;56.90
45008;DHT22;30743;52.008;5.644;2022-08-16T15:00:39;39.60;57.60
45008;DHT22;30743;52.008;5.644;2022-08-16T15:03:07;39.70;58.00
45008;DHT22;30743;52.008;5.644;2022-08-16T15:05:33;39.60;58.00
45008;DHT22;30743;52.008;5.644;2022-08-16T15:07:59;39.50;58.40
45008;DHT22;30743;52.008;5.644;2022-08-16T15:10:25;39.50;58.90
45008;DHT22;30743;52.008;5.644;2022-08-16T15:12:51;39.60;59.10
45008;DHT22;30743;52.008;5.644;2022-08-16T15:15:22;39.40;58.70
45008;DHT22;30743;52.008;5.644;2022-08-16T15:17:48;39.40;58.40
45008;DHT22;30743;52.008;5.644;2022-08-16T15:20:14;39.40;58.80
45008;DHT22;30743;52.008;5.644;2022-08-16T15:22:46;39.30;58.90
45008;DHT22;30743;52.008;5.644;2022-08-16T15:25:27;39.20;59.70
45008;DHT22;30743;52.008;5.644;2022-08-16T15:27:53;39.20;59.80
45008;DHT22;30743;52.008;5.644;2022-08-16T15:30:22;39.10;58.70
45008;DHT22;30743;52.008;5.644;2022-08-16T15:32:59;39.10;59.00